sensor_id;sensor_type;location;lat;lon;timestamp;P1;durP1;ratioP1;P2;durP2;ratioP2
77625;SDS011;66794;43.764;10.436;2023-07-31T00:02:36;14.75;;;5.40;;
77625;SDS011;66794;43.764;10.436;2023-07-31T00:05:22;13.57;;;5.07;;
77625;SDS011;66794;43.764;10.436;2023-07-31T00:08:07;12.32;;;4.95;;
77625;SDS011;66794;43.764;10.436;2023-07-31T00:10:53;11.10;;;4.93;;
77625;SDS011;66794;43.764;10.436;2023-07-31T00:13:39;12.30;;;5.00;;
77625;SDS011;66794;43.764;10.436;2023-07-31T00:16:25;14.05;;;5.22;;
77625;SDS011;66794;43.764;10.436;2023-07-31T00:19:11;14.52;;;5.20;;
77625;SDS011;66794;43.764;10.436;2023-07-31T00:21:56;12.27;;;5.22;;
77625;SDS011;66794;43.764;10.436;2023-07-31T00:24:42;13.02;;;5.55;;
77625;SDS011;66794;43.764;10.436;2023-07-31T00:27:28;13.63;;;5.18;;
77625;SDS011;66794;43.764;10.436;2023-07-31T00:30:13;9.35;;;5.03;;
77625;SDS011;66794;43.764;10.436;2023-07-31T00:32:59;15.95;;;5.80;;
77625;SDS011;66794;43.764;10.436;2023-07-31T00:35:45;19.83;;;7.88;;
77625;SDS011;66794;43.764;10.436;2023-07-31T00:38:31;13.23;;;8.20;;
77625;SDS011;66794;43.764;10.436;2023-07-31T00:41:16;18.98;;;8.23;;
77625;SDS011;66794;43.764;10.436;2023-07-31T00:44:02;16.20;;;7.32;;
77625;SDS011;66794;43.764;10.436;2023-07-31T00:46:48;23.80;;;7.95;;
77625;SDS011;66794;43.764;10.436;2023-07-31T00:49:34;13.65;;;6.55;;
77625;SDS011;66794;43.764;10.436;2023-07-31T00:52:20;13.68;;;6.43;;
77625;SDS011;66794;43.764;10.436;2023-07-31T00:55:06;16.50;;;6.60;;
77625;SDS011;66794;43.764;10.436;2023-07-31T00:57:52;15.70;;;6.00;;
77625;SDS011;66794;43.764;10.436;2023-07-31T01:00:40;11.73;;;5.72;;
77625;SDS011;66794;43.764;10.436;2023-07-31T01:03:26;9.82;;;5.25;;
77625;SDS011;66794;43.764;10.436;2023-07-31T01:06:17;12.07;;;5.97;;
77625;SDS011;66794;43.764;10.436;2023-07-31T01:12:50;12.63;;;6.20;;
77625;SDS011;66794;43.764;10.436;2023-07-31T01:15:36;12.88;;;6.88;;
77625;SDS011;66794;43.764;10.436;2023-07-31T01:18:22;13.27;;;6.43;;
77625;SDS011;66794;43.764;10.436;2023-07-31T01:24:22;19.15;;;8.32;;
77625;SDS011;66794;43.764;10.436;2023-07-31T01:27:15;18.88;;;8.30;;
77625;SDS011;66794;43.764;10.436;2023-07-31T01:30:15;17.63;;;8.82;;
77625;SDS011;66794;43.764;10.436;2023-07-31T01:33:02;17.38;;;8.05;;
77625;SDS011;66794;43.764;10.436;2023-07-31T01:35:53;17.17;;;8.38;;
77625;SDS011;66794;43.764;10.436;2023-07-31T01:38:39;15.15;;;8.23;;
77625;SDS011;66794;43.764;10.436;2023-07-31T01:41:25;16.52;;;8.43;;
77625;SDS011;66794;43.764;10.436;2023-07-31T01:44:12;14.27;;;7.93;;
77625;SDS011;66794;43.764;10.436;2023-07-31T01:46:57;18.55;;;8.18;;
77625;SDS011;66794;43.764;10.436;2023-07-31T01:49:45;13.05;;;8.27;;
77625;SDS011;66794;43.764;10.436;2023-07-31T01:52:31;16.73;;;8.55;;
77625;SDS011;66794;43.764;10.436;2023-07-31T01:55:16;15.50;;;8.05;;
77625;SDS011;66794;43.764;10.436;2023-07-31T01:58:02;15.30;;;8.50;;
77625;SDS011;66794;43.764;10.436;2023-07-31T02:00:48;15.20;;;8.18;;
77625;SDS011;66794;43.764;10.436;2023-07-31T02:03:34;16.02;;;8.38;;
77625;SDS011;66794;43.764;10.436;2023-07-31T02:06:20;18.23;;;8.65;;
77625;SDS011;66794;43.764;10.436;2023-07-31T02:09:05;16.40;;;8.52;;
77625;SDS011;66794;43.764;10.436;2023-07-31T02:11:51;16.60;;;8.82;;
77625;SDS011;66794;43.764;10.436;2023-07-31T02:14:37;13.85;;;8.40;;
77625;SDS011;66794;43.764;10.436;2023-07-31T02:17:23;15.65;;;8.25;;
77625;SDS011;66794;43.764;10.436;2023-07-31T02:20:08;12.98;;;8.30;;
77625;SDS011;66794;43.764;10.436;2023-07-31T02:22:55;13.75;;;7.85;;
77625;SDS011;66794;43.764;10.436;2023-07-31T02:25:40;15.70;;;8.98;;
77625;SDS011;66794;43.764;10.436;2023-07-31T02:28:26;16.95;;;8.50;;
77625;SDS011;66794;43.764;10.436;2023-07-31T02:31:12;19.17;;;8.73;;
77625;SDS011;66794;43.764;10.436;2023-07-31T02:33:57;14.60;;;8.45;;
77625;SDS011;66794;43.764;10.436;2023-07-31T02:36:43;13.70;;;8.15;;
77625;SDS011;66794;43.764;10.436;2023-07-31T02:39:29;15.88;;;7.78;;
77625;SDS011;66794;43.764;10.436;2023-07-31T02:42:15;16.20;;;7.82;;
77625;SDS011;66794;43.764;10.436;2023-07-31T02:45:00;13.25;;;7.65;;
77625;SDS011;66794;43.764;10.436;2023-07-31T02:47:46;16.73;;;7.35;;
77625;SDS011;66794;43.764;10.436;2023-07-31T02:50:32;12.65;;;7.28;;
77625;SDS011;66794;43.764;10.436;2023-07-31T02:53:18;15.15;;;7.82;;
77625;SDS011;66794;43.764;10.436;2023-07-31T02:56:04;15.52;;;8.43;;
77625;SDS011;66794;43.764;10.436;2023-07-31T02:58:50;21.25;;;8.73;;
77625;SDS011;66794;43.764;10.436;2023-07-31T03:01:35;16.80;;;9.27;;
77625;SDS011;66794;43.764;10.436;2023-07-31T03:04:21;15.57;;;9.30;;
77625;SDS011;66794;43.764;10.436;2023-07-31T03:07:07;14.20;;;10.10;;
77625;SDS011;66794;43.764;10.436;2023-07-31T03:09:52;17.98;;;10.07;;
77625;SDS011;66794;43.764;10.436;2023-07-31T03:12:38;17.77;;;10.75;;
77625;SDS011;66794;43.764;10.436;2023-07-31T03:15:25;16.95;;;10.88;;
77625;SDS011;66794;43.764;10.436;2023-07-31T03:18:10;18.85;;;10.77;;
77625;SDS011;66794;43.764;10.436;2023-07-31T03:20:56;19.63;;;11.68;;
77625;SDS011;66794;43.764;10.436;2023-07-31T03:23:42;16.52;;;10.98;;
77625;SDS011;66794;43.764;10.436;2023-07-31T03:26:30;21.15;;;11.18;;
77625;SDS011;66794;43.764;10.436;2023-07-31T03:29:17;18.08;;;11.27;;
77625;SDS011;66794;43.764;10.436;2023-07-31T03:32:03;17.92;;;11.77;;
77625;SDS011;66794;43.764;10.436;2023-07-31T03:34:49;17.70;;;12.18;;
77625;SDS011;66794;43.764;10.436;2023-07-31T03:37:35;20.98;;;11.65;;
77625;SDS011;66794;43.764;10.436;2023-07-31T03:40:21;20.40;;;12.52;;
77625;SDS011;66794;43.764;10.436;2023-07-31T03:43:06;18.27;;;12.05;;
77625;SDS011;66794;43.764;10.436;2023-07-31T03:45:52;21.75;;;12.43;;
77625;SDS011;66794;43.764;10.436;2023-07-31T03:48:38;19.63;;;12.88;;
77625;SDS011;66794;43.764;10.436;2023-07-31T03:51:24;19.75;;;12.52;;
77625;SDS011;66794;43.764;10.436;2023-07-31T03:54:09;19.88;;;12.20;;
77625;SDS011;66794;43.764;10.436;2023-07-31T03:56:55;17.13;;;12.05;;
77625;SDS011;66794;43.764;10.436;2023-07-31T03:59:41;21.65;;;12.45;;
77625;SDS011;66794;43.764;10.436;2023-07-31T04:02:27;18.65;;;12.70;;
77625;SDS011;66794;43.764;10.436;2023-07-31T04:05:12;23.45;;;12.63;;
77625;SDS011;66794;43.764;10.436;2023-07-31T04:07:58;22.75;;;11.98;;
77625;SDS011;66794;43.764;10.436;2023-07-31T04:10:44;19.63;;;12.73;;
77625;SDS011;66794;43.764;10.436;2023-07-31T04:13:29;20.00;;;13.88;;
77625;SDS011;66794;43.764;10.436;2023-07-31T04:16:15;21.52;;;13.75;;
77625;SDS011;66794;43.764;10.436;2023-07-31T04:19:01;17.75;;;13.15;;
77625;SDS011;66794;43.764;10.436;2023-07-31T04:21:48;23.02;;;14.15;;
77625;SDS011;66794;43.764;10.436;2023-07-31T04:24:33;21.77;;;13.73;;
77625;SDS011;66794;43.764;10.436;2023-07-31T04:27:19;20.95;;;13.95;;
77625;SDS011;66794;43.764;10.436;2023-07-31T04:30:05;22.30;;;14.57;;
77625;SDS011;66794;43.764;10.436;2023-07-31T04:32:51;22.48;;;13.90;;
77625;SDS011;66794;43.764;10.436;2023-07-31T04:35:37;30.15;;;16.52;;
77625;SDS011;66794;43.764;10.436;2023-07-31T04:38:23;23.33;;;15.18;;
77625;SDS011;66794;43.764;10.436;2023-07-31T04:41:08;23.90;;;15.30;;
77625;SDS011;66794;43.764;10.436;2023-07-31T04:43:54;20.55;;;15.07;;
77625;SDS011;66794;43.764;10.436;2023-07-31T04:46:40;20.05;;;14.02;;
77625;SDS011;66794;43.764;10.436;2023-07-31T04:49:26;23.83;;;13.80;;
77625;SDS011;66794;43.764;10.436;2023-07-31T04:52:11;18.90;;;13.65;;
77625;SDS011;66794;43.764;10.436;2023-07-31T04:54:57;24.45;;;12.80;;
77625;SDS011;66794;43.764;10.436;2023-07-31T04:57:43;23.17;;;13.27;;
77625;SDS011;66794;43.764;10.436;2023-07-31T05:00:28;20.73;;;13.40;;
77625;SDS011;66794;43.764;10.436;2023-07-31T05:03:15;21.40;;;14.35;;
77625;SDS011;66794;43.764;10.436;2023-07-31T05:06:00;17.70;;;13.27;;
77625;SDS011;66794;43.764;10.436;2023-07-31T05:08:46;27.75;;;13.52;;
77625;SDS011;66794;43.764;10.436;2023-07-31T05:11:32;22.42;;;12.63;;
77625;SDS011;66794;43.764;10.436;2023-07-31T05:14:18;20.02;;;13.43;;
77625;SDS011;66794;43.764;10.436;2023-07-31T05:17:03;23.85;;;12.82;;
77625;SDS011;66794;43.764;10.436;2023-07-31T05:19:49;18.92;;;12.85;;
77625;SDS011;66794;43.764;10.436;2023-07-31T05:22:35;20.65;;;12.88;;
77625;SDS011;66794;43.764;10.436;2023-07-31T05:25:21;21.38;;;12.63;;
77625;SDS011;66794;43.764;10.436;2023-07-31T05:28:06;23.60;;;13.25;;
77625;SDS011;66794;43.764;10.436;2023-07-31T05:30:58;17.55;;;12.10;;
77625;SDS011;66794;43.764;10.436;2023-07-31T05:33:44;20.40;;;11.85;;
77625;SDS011;66794;43.764;10.436;2023-07-31T05:36:30;19.77;;;13.02;;
77625;SDS011;66794;43.764;10.436;2023-07-31T05:39:15;17.00;;;12.45;;
77625;SDS011;66794;43.764;10.436;2023-07-31T05:42:01;16.60;;;11.85;;
77625;SDS011;66794;43.764;10.436;2023-07-31T05:44:47;19.70;;;12.10;;
77625;SDS011;66794;43.764;10.436;2023-07-31T05:47:33;19.90;;;11.52;;
77625;SDS011;66794;43.764;10.436;2023-07-31T05:50:19;20.75;;;11.18;;
77625;SDS011;66794;43.764;10.436;2023-07-31T05:53:05;16.65;;;10.65;;
77625;SDS011;66794;43.764;10.436;2023-07-31T05:55:51;18.38;;;10.50;;
77625;SDS011;66794;43.764;10.436;2023-07-31T05:58:37;16.25;;;10.30;;
77625;SDS011;66794;43.764;10.436;2023-07-31T06:01:23;15.05;;;10.55;;
77625;SDS011;66794;43.764;10.436;2023-07-31T06:04:09;17.50;;;10.35;;
77625;SDS011;66794;43.764;10.436;2023-07-31T06:06:54;16.02;;;9.07;;
77625;SDS011;66794;43.764;10.436;2023-07-31T06:09:41;16.08;;;8.82;;
77625;SDS011;66794;43.764;10.436;2023-07-31T06:12:27;16.13;;;7.88;;
77625;SDS011;66794;43.764;10.436;2023-07-31T06:15:13;15.18;;;8.43;;
77625;SDS011;66794;43.764;10.436;2023-07-31T06:17:59;10.15;;;7.55;;
77625;SDS011;66794;43.764;10.436;2023-07-31T06:20:47;13.63;;;7.80;;
77625;SDS011;66794;43.764;10.436;2023-07-31T06:23:33;14.07;;;7.63;;
77625;SDS011;66794;43.764;10.436;2023-07-31T06:26:20;16.15;;;7.65;;
77625;SDS011;66794;43.764;10.436;2023-07-31T06:29:05;12.18;;;7.20;;
77625;SDS011;66794;43.764;10.436;2023-07-31T06:31:51;12.35;;;6.65;;
77625;SDS011;66794;43.764;10.436;2023-07-31T06:34:37;12.07;;;6.50;;
77625;SDS011;66794;43.764;10.436;2023-07-31T06:37:23;11.77;;;6.40;;
77625;SDS011;66794;43.764;10.436;2023-07-31T06:40:08;17.45;;;7.55;;
77625;SDS011;66794;43.764;10.436;2023-07-31T06:42:55;13.65;;;7.10;;
77625;SDS011;66794;43.764;10.436;2023-07-31T06:45:40;14.38;;;7.60;;
77625;SDS011;66794;43.764;10.436;2023-07-31T06:48:26;13.40;;;8.27;;
77625;SDS011;66794;43.764;10.436;2023-07-31T06:51:12;15.85;;;8.70;;
77625;SDS011;66794;43.764;10.436;2023-07-31T06:53:58;12.38;;;7.05;;
77625;SDS011;66794;43.764;10.436;2023-07-31T06:56:43;10.18;;;7.07;;
77625;SDS011;66794;43.764;10.436;2023-07-31T06:59:29;12.30;;;6.68;;
77625;SDS011;66794;43.764;10.436;2023-07-31T07:02:15;10.50;;;6.03;;
77625;SDS011;66794;43.764;10.436;2023-07-31T07:05:01;16.42;;;6.72;;
77625;SDS011;66794;43.764;10.436;2023-07-31T07:07:48;12.85;;;6.40;;
77625;SDS011;66794;43.764;10.436;2023-07-31T07:10:15;10.95;;;6.88;;
77625;SDS011;66794;43.764;10.436;2023-07-31T07:12:40;12.73;;;6.07;;
77625;SDS011;66794;43.764;10.436;2023-07-31T07:15:06;10.30;;;6.70;;
77625;SDS011;66794;43.764;10.436;2023-07-31T07:17:31;12.95;;;6.60;;
77625;SDS011;66794;43.764;10.436;2023-07-31T07:19:57;13.60;;;6.18;;
77625;SDS011;66794;43.764;10.436;2023-07-31T07:22:23;13.70;;;6.40;;
77625;SDS011;66794;43.764;10.436;2023-07-31T07:24:49;13.90;;;6.65;;
77625;SDS011;66794;43.764;10.436;2023-07-31T07:27:14;10.45;;;5.68;;
77625;SDS011;66794;43.764;10.436;2023-07-31T07:29:39;8.90;;;5.82;;
77625;SDS011;66794;43.764;10.436;2023-07-31T07:32:05;10.20;;;5.63;;
77625;SDS011;66794;43.764;10.436;2023-07-31T07:34:31;9.82;;;5.55;;
77625;SDS011;66794;43.764;10.436;2023-07-31T07:36:56;11.63;;;5.50;;
77625;SDS011;66794;43.764;10.436;2023-07-31T07:39:22;9.43;;;5.70;;
77625;SDS011;66794;43.764;10.436;2023-07-31T07:41:47;13.43;;;5.97;;
77625;SDS011;66794;43.764;10.436;2023-07-31T07:44:13;11.13;;;5.95;;
77625;SDS011;66794;43.764;10.436;2023-07-31T07:46:39;10.20;;;5.43;;
77625;SDS011;66794;43.764;10.436;2023-07-31T07:49:05;9.73;;;5.40;;
77625;SDS011;66794;43.764;10.436;2023-07-31T07:51:31;12.20;;;5.40;;
77625;SDS011;66794;43.764;10.436;2023-07-31T07:53:57;10.02;;;5.50;;
77625;SDS011;66794;43.764;10.436;2023-07-31T07:56:25;11.95;;;5.45;;
77625;SDS011;66794;43.764;10.436;2023-07-31T07:58:52;12.63;;;5.57;;
77625;SDS011;66794;43.764;10.436;2023-07-31T08:01:17;13.23;;;5.97;;
77625;SDS011;66794;43.764;10.436;2023-07-31T08:03:43;15.35;;;5.50;;
77625;SDS011;66794;43.764;10.436;2023-07-31T08:06:08;9.57;;;5.43;;
77625;SDS011;66794;43.764;10.436;2023-07-31T08:08:37;9.85;;;5.32;;
77625;SDS011;66794;43.764;10.436;2023-07-31T08:11:03;10.85;;;5.18;;
77625;SDS011;66794;43.764;10.436;2023-07-31T08:13:29;10.68;;;5.40;;
77625;SDS011;66794;43.764;10.436;2023-07-31T08:15:54;10.38;;;5.50;;
77625;SDS011;66794;43.764;10.436;2023-07-31T08:18:20;8.50;;;5.65;;
77625;SDS011;66794;43.764;10.436;2023-07-31T08:20:45;10.90;;;5.85;;
77625;SDS011;66794;43.764;10.436;2023-07-31T08:23:11;11.88;;;5.25;;
77625;SDS011;66794;43.764;10.436;2023-07-31T08:25:37;14.10;;;5.43;;
77625;SDS011;66794;43.764;10.436;2023-07-31T08:28:03;11.50;;;5.32;;
77625;SDS011;66794;43.764;10.436;2023-07-31T08:30:30;11.40;;;5.68;;
77625;SDS011;66794;43.764;10.436;2023-07-31T08:32:55;13.88;;;6.22;;
77625;SDS011;66794;43.764;10.436;2023-07-31T08:35:21;12.10;;;5.65;;
77625;SDS011;66794;43.764;10.436;2023-07-31T08:37:46;9.93;;;5.35;;
77625;SDS011;66794;43.764;10.436;2023-07-31T08:40:12;9.70;;;5.40;;
77625;SDS011;66794;43.764;10.436;2023-07-31T08:42:45;9.85;;;5.35;;
77625;SDS011;66794;43.764;10.436;2023-07-31T08:45:16;14.10;;;5.00;;
77625;SDS011;66794;43.764;10.436;2023-07-31T08:47:44;12.20;;;4.85;;
77625;SDS011;66794;43.764;10.436;2023-07-31T08:50:15;12.00;;;4.78;;
77625;SDS011;66794;43.764;10.436;2023-07-31T08:52:42;11.43;;;4.50;;
77625;SDS011;66794;43.764;10.436;2023-07-31T08:55:08;10.27;;;3.97;;
77625;SDS011;66794;43.764;10.436;2023-07-31T08:57:34;32.53;;;6.13;;
77625;SDS011;66794;43.764;10.436;2023-07-31T09:00:01;7.53;;;3.42;;
77625;SDS011;66794;43.764;10.436;2023-07-31T09:03:02;9.82;;;4.50;;
77625;SDS011;66794;43.764;10.436;2023-07-31T09:05:21;7.18;;;4.10;;
77625;SDS011;66794;43.764;10.436;2023-07-31T09:07:47;8.18;;;3.85;;
77625;SDS011;66794;43.764;10.436;2023-07-31T09:10:17;10.27;;;4.47;;
77625;SDS011;66794;43.764;10.436;2023-07-31T09:12:43;8.43;;;4.00;;
77625;SDS011;66794;43.764;10.436;2023-07-31T09:15:09;8.20;;;3.90;;
77625;SDS011;66794;43.764;10.436;2023-07-31T09:17:36;9.23;;;3.90;;
77625;SDS011;66794;43.764;10.436;2023-07-31T09:22:42;9.77;;;4.07;;
77625;SDS011;66794;43.764;10.436;2023-07-31T09:27:54;8.40;;;4.13;;
77625;SDS011;66794;43.764;10.436;2023-07-31T09:30:23;10.63;;;4.50;;
77625;SDS011;66794;43.764;10.436;2023-07-31T09:32:49;8.75;;;4.13;;
77625;SDS011;66794;43.764;10.436;2023-07-31T09:37:52;8.57;;;4.20;;
77625;SDS011;66794;43.764;10.436;2023-07-31T09:42:58;10.20;;;3.80;;
77625;SDS011;66794;43.764;10.436;2023-07-31T09:45:25;9.30;;;4.00;;
77625;SDS011;66794;43.764;10.436;2023-07-31T09:47:51;15.90;;;4.32;;
77625;SDS011;66794;43.764;10.436;2023-07-31T09:50:19;10.25;;;4.03;;
77625;SDS011;66794;43.764;10.436;2023-07-31T09:52:46;8.27;;;4.18;;
77625;SDS011;66794;43.764;10.436;2023-07-31T09:55:11;9.00;;;4.53;;
77625;SDS011;66794;43.764;10.436;2023-07-31T09:57:39;11.60;;;4.32;;
77625;SDS011;66794;43.764;10.436;2023-07-31T10:00:06;17.35;;;5.05;;
77625;SDS011;66794;43.764;10.436;2023-07-31T10:02:34;8.23;;;3.45;;
77625;SDS011;66794;43.764;10.436;2023-07-31T10:05:02;12.30;;;4.93;;
77625;SDS011;66794;43.764;10.436;2023-07-31T10:07:29;9.88;;;3.97;;
77625;SDS011;66794;43.764;10.436;2023-07-31T10:09:59;7.90;;;3.80;;
77625;SDS011;66794;43.764;10.436;2023-07-31T10:12:26;7.70;;;4.05;;
77625;SDS011;66794;43.764;10.436;2023-07-31T10:14:55;7.88;;;3.80;;
77625;SDS011;66794;43.764;10.436;2023-07-31T10:17:24;6.45;;;3.78;;
77625;SDS011;66794;43.764;10.436;2023-07-31T10:19:50;9.77;;;4.03;;
77625;SDS011;66794;43.764;10.436;2023-07-31T10:22:16;10.18;;;4.35;;
77625;SDS011;66794;43.764;10.436;2023-07-31T10:24:43;13.65;;;4.30;;
77625;SDS011;66794;43.764;10.436;2023-07-31T10:27:10;8.73;;;4.45;;
77625;SDS011;66794;43.764;10.436;2023-07-31T10:29:39;7.20;;;4.32;;
77625;SDS011;66794;43.764;10.436;2023-07-31T10:32:06;8.73;;;4.28;;
77625;SDS011;66794;43.764;10.436;2023-07-31T10:34:35;9.40;;;4.25;;
77625;SDS011;66794;43.764;10.436;2023-07-31T10:40:02;7.68;;;4.07;;
77625;SDS011;66794;43.764;10.436;2023-07-31T10:42:30;7.55;;;4.40;;
77625;SDS011;66794;43.764;10.436;2023-07-31T10:44:56;8.07;;;3.85;;
77625;SDS011;66794;43.764;10.436;2023-07-31T10:47:23;9.23;;;4.10;;
77625;SDS011;66794;43.764;10.436;2023-07-31T10:49:48;8.38;;;4.00;;
77625;SDS011;66794;43.764;10.436;2023-07-31T10:52:15;7.30;;;3.40;;
77625;SDS011;66794;43.764;10.436;2023-07-31T10:54:48;8.25;;;4.15;;
77625;SDS011;66794;43.764;10.436;2023-07-31T10:57:21;8.43;;;3.80;;
77625;SDS011;66794;43.764;10.436;2023-07-31T10:59:47;9.52;;;3.83;;
77625;SDS011;66794;43.764;10.436;2023-07-31T11:02:23;11.73;;;4.30;;
77625;SDS011;66794;43.764;10.436;2023-07-31T11:05:08;6.90;;;4.20;;
77625;SDS011;66794;43.764;10.436;2023-07-31T11:07:50;8.85;;;4.03;;
77625;SDS011;66794;43.764;10.436;2023-07-31T11:10:16;6.05;;;3.65;;
77625;SDS011;66794;43.764;10.436;2023-07-31T11:12:42;9.38;;;4.00;;
77625;SDS011;66794;43.764;10.436;2023-07-31T11:15:08;6.70;;;3.58;;
77625;SDS011;66794;43.764;10.436;2023-07-31T11:17:38;5.15;;;3.28;;
77625;SDS011;66794;43.764;10.436;2023-07-31T11:20:04;8.93;;;3.60;;
77625;SDS011;66794;43.764;10.436;2023-07-31T11:22:30;7.30;;;3.78;;
77625;SDS011;66794;43.764;10.436;2023-07-31T11:24:56;5.78;;;3.38;;
77625;SDS011;66794;43.764;10.436;2023-07-31T11:27:21;6.85;;;3.67;;
77625;SDS011;66794;43.764;10.436;2023-07-31T11:29:47;6.82;;;3.75;;
77625;SDS011;66794;43.764;10.436;2023-07-31T11:32:16;8.38;;;3.83;;
77625;SDS011;66794;43.764;10.436;2023-07-31T11:34:52;7.80;;;3.22;;
77625;SDS011;66794;43.764;10.436;2023-07-31T11:37:18;7.25;;;3.70;;
77625;SDS011;66794;43.764;10.436;2023-07-31T11:39:43;5.78;;;3.60;;
77625;SDS011;66794;43.764;10.436;2023-07-31T11:42:26;5.35;;;3.25;;
77625;SDS011;66794;43.764;10.436;2023-07-31T11:44:51;9.77;;;4.20;;
77625;SDS011;66794;43.764;10.436;2023-07-31T11:47:17;9.65;;;3.53;;
77625;SDS011;66794;43.764;10.436;2023-07-31T11:49:43;7.13;;;3.67;;
77625;SDS011;66794;43.764;10.436;2023-07-31T11:52:08;8.65;;;3.17;;
77625;SDS011;66794;43.764;10.436;2023-07-31T11:54:35;6.85;;;3.72;;
77625;SDS011;66794;43.764;10.436;2023-07-31T11:57:01;9.05;;;3.50;;
77625;SDS011;66794;43.764;10.436;2023-07-31T11:59:27;8.50;;;3.67;;
77625;SDS011;66794;43.764;10.436;2023-07-31T12:01:53;5.75;;;3.13;;
77625;SDS011;66794;43.764;10.436;2023-07-31T12:04:19;8.45;;;3.75;;
77625;SDS011;66794;43.764;10.436;2023-07-31T12:06:46;7.32;;;3.70;;
77625;SDS011;66794;43.764;10.436;2023-07-31T12:09:14;6.10;;;3.63;;
77625;SDS011;66794;43.764;10.436;2023-07-31T12:11:43;6.72;;;3.65;;
77625;SDS011;66794;43.764;10.436;2023-07-31T12:14:19;9.55;;;3.70;;
77625;SDS011;66794;43.764;10.436;2023-07-31T12:17:15;5.07;;;3.22;;
77625;SDS011;66794;43.764;10.436;2023-07-31T12:19:40;5.57;;;3.30;;
77625;SDS011;66794;43.764;10.436;2023-07-31T12:22:15;7.45;;;3.85;;
77625;SDS011;66794;43.764;10.436;2023-07-31T12:24:44;5.38;;;3.30;;
77625;SDS011;66794;43.764;10.436;2023-07-31T12:27:13;6.88;;;3.15;;
77625;SDS011;66794;43.764;10.436;2023-07-31T12:29:41;5.75;;;3.50;;
77625;SDS011;66794;43.764;10.436;2023-07-31T12:32:22;6.20;;;3.40;;
77625;SDS011;66794;43.764;10.436;2023-07-31T12:34:49;7.50;;;3.60;;
77625;SDS011;66794;43.764;10.436;2023-07-31T12:37:14;5.55;;;3.25;;
77625;SDS011;66794;43.764;10.436;2023-07-31T12:39:40;8.02;;;3.70;;
77625;SDS011;66794;43.764;10.436;2023-07-31T12:42:07;9.13;;;3.40;;
77625;SDS011;66794;43.764;10.436;2023-07-31T12:44:33;6.95;;;3.28;;
77625;SDS011;66794;43.764;10.436;2023-07-31T12:46:58;6.72;;;3.50;;
77625;SDS011;66794;43.764;10.436;2023-07-31T12:49:24;6.45;;;3.42;;
77625;SDS011;66794;43.764;10.436;2023-07-31T12:51:49;7.43;;;3.38;;
77625;SDS011;66794;43.764;10.436;2023-07-31T12:54:15;5.60;;;3.28;;
77625;SDS011;66794;43.764;10.436;2023-07-31T12:56:40;6.65;;;3.50;;
77625;SDS011;66794;43.764;10.436;2023-07-31T12:59:06;6.88;;;3.47;;
77625;SDS011;66794;43.764;10.436;2023-07-31T13:01:31;7.03;;;3.40;;
77625;SDS011;66794;43.764;10.436;2023-07-31T13:03:57;6.03;;;3.42;;
77625;SDS011;66794;43.764;10.436;2023-07-31T13:06:23;6.65;;;3.53;;
77625;SDS011;66794;43.764;10.436;2023-07-31T13:08:49;5.93;;;3.40;;
77625;SDS011;66794;43.764;10.436;2023-07-31T13:11:15;7.00;;;3.33;;
77625;SDS011;66794;43.764;10.436;2023-07-31T13:13:40;4.57;;;3.22;;
77625;SDS011;66794;43.764;10.436;2023-07-31T13:16:06;5.18;;;3.25;;
77625;SDS011;66794;43.764;10.436;2023-07-31T13:18:31;7.75;;;3.30;;
77625;SDS011;66794;43.764;10.436;2023-07-31T13:20:58;4.93;;;2.97;;
77625;SDS011;66794;43.764;10.436;2023-07-31T13:23:23;6.90;;;3.53;;
77625;SDS011;66794;43.764;10.436;2023-07-31T13:25:48;7.43;;;3.38;;
77625;SDS011;66794;43.764;10.436;2023-07-31T13:28:14;5.10;;;3.30;;
77625;SDS011;66794;43.764;10.436;2023-07-31T13:30:39;6.05;;;3.22;;
77625;SDS011;66794;43.764;10.436;2023-07-31T13:33:05;6.47;;;3.17;;
77625;SDS011;66794;43.764;10.436;2023-07-31T13:35:30;5.75;;;3.30;;
77625;SDS011;66794;43.764;10.436;2023-07-31T13:37:56;6.45;;;3.42;;
77625;SDS011;66794;43.764;10.436;2023-07-31T13:40:22;7.55;;;3.90;;
77625;SDS011;66794;43.764;10.436;2023-07-31T13:42:48;10.10;;;3.53;;
77625;SDS011;66794;43.764;10.436;2023-07-31T13:45:13;7.78;;;3.20;;
77625;SDS011;66794;43.764;10.436;2023-07-31T13:47:39;6.53;;;3.25;;
77625;SDS011;66794;43.764;10.436;2023-07-31T13:50:05;6.00;;;3.40;;
77625;SDS011;66794;43.764;10.436;2023-07-31T13:52:31;6.18;;;3.13;;
77625;SDS011;66794;43.764;10.436;2023-07-31T13:54:56;8.70;;;4.00;;
77625;SDS011;66794;43.764;10.436;2023-07-31T13:57:22;8.45;;;3.40;;
77625;SDS011;66794;43.764;10.436;2023-07-31T13:59:48;5.93;;;3.42;;
77625;SDS011;66794;43.764;10.436;2023-07-31T14:02:14;5.78;;;3.10;;
77625;SDS011;66794;43.764;10.436;2023-07-31T14:04:40;8.00;;;3.72;;
77625;SDS011;66794;43.764;10.436;2023-07-31T14:07:05;11.23;;;3.90;;
77625;SDS011;66794;43.764;10.436;2023-07-31T14:09:32;6.15;;;3.65;;
77625;SDS011;66794;43.764;10.436;2023-07-31T14:11:57;7.18;;;3.33;;
77625;SDS011;66794;43.764;10.436;2023-07-31T14:14:22;6.78;;;3.05;;
77625;SDS011;66794;43.764;10.436;2023-07-31T14:16:48;7.30;;;3.10;;
77625;SDS011;66794;43.764;10.436;2023-07-31T14:19:13;5.28;;;3.05;;
77625;SDS011;66794;43.764;10.436;2023-07-31T14:21:39;5.57;;;3.22;;
77625;SDS011;66794;43.764;10.436;2023-07-31T14:24:04;6.10;;;3.33;;
77625;SDS011;66794;43.764;10.436;2023-07-31T14:26:30;6.75;;;3.03;;
77625;SDS011;66794;43.764;10.436;2023-07-31T14:28:56;7.22;;;3.33;;
77625;SDS011;66794;43.764;10.436;2023-07-31T14:31:21;6.93;;;3.15;;
77625;SDS011;66794;43.764;10.436;2023-07-31T14:33:46;4.72;;;3.10;;
77625;SDS011;66794;43.764;10.436;2023-07-31T14:36:12;6.30;;;3.55;;
77625;SDS011;66794;43.764;10.436;2023-07-31T14:38:38;6.40;;;3.45;;
77625;SDS011;66794;43.764;10.436;2023-07-31T14:41:03;4.38;;;2.70;;
77625;SDS011;66794;43.764;10.436;2023-07-31T14:43:29;4.80;;;2.85;;
77625;SDS011;66794;43.764;10.436;2023-07-31T14:45:54;6.82;;;3.70;;
77625;SDS011;66794;43.764;10.436;2023-07-31T14:48:22;5.80;;;3.35;;
77625;SDS011;66794;43.764;10.436;2023-07-31T14:50:48;5.30;;;3.25;;
77625;SDS011;66794;43.764;10.436;2023-07-31T14:53:13;10.25;;;3.47;;
77625;SDS011;66794;43.764;10.436;2023-07-31T14:55:39;8.05;;;3.53;;
77625;SDS011;66794;43.764;10.436;2023-07-31T14:58:04;5.47;;;3.22;;
77625;SDS011;66794;43.764;10.436;2023-07-31T15:00:30;7.88;;;3.20;;
77625;SDS011;66794;43.764;10.436;2023-07-31T15:02:55;7.05;;;3.20;;
77625;SDS011;66794;43.764;10.436;2023-07-31T15:05:21;7.05;;;3.58;;
77625;SDS011;66794;43.764;10.436;2023-07-31T15:07:46;7.40;;;3.08;;
77625;SDS011;66794;43.764;10.436;2023-07-31T15:10:12;7.22;;;3.58;;
77625;SDS011;66794;43.764;10.436;2023-07-31T15:12:39;6.63;;;3.00;;
77625;SDS011;66794;43.764;10.436;2023-07-31T15:15:05;8.80;;;3.75;;
77625;SDS011;66794;43.764;10.436;2023-07-31T15:17:31;9.90;;;3.42;;
77625;SDS011;66794;43.764;10.436;2023-07-31T15:19:57;11.93;;;3.45;;
77625;SDS011;66794;43.764;10.436;2023-07-31T15:22:22;9.50;;;3.42;;
77625;SDS011;66794;43.764;10.436;2023-07-31T15:24:48;6.57;;;3.80;;
77625;SDS011;66794;43.764;10.436;2023-07-31T15:27:14;5.55;;;3.20;;
77625;SDS011;66794;43.764;10.436;2023-07-31T15:29:39;10.02;;;3.63;;
77625;SDS011;66794;43.764;10.436;2023-07-31T15:32:05;8.40;;;3.60;;
77625;SDS011;66794;43.764;10.436;2023-07-31T15:34:31;7.07;;;3.42;;